sensor_id;sensor_type;location;lat;lon;timestamp;temperature;humidity
14901;DHT22;7542;49.078;9.194;2023-06-22T00:00:11;28.70;56.70
14901;DHT22;7542;49.078;9.194;2023-06-22T00:01:13;28.70;56.70
14901;DHT22;7542;49.078;9.194;2023-06-22T00:02:16;28.70;56.60
14901;DHT22;7542;49.078;9.194;2023-06-22T00:03:19;28.70;56.60
14901;DHT22;7542;49.078;9.194;2023-06-22T00:04:23;28.70;56.70
14901;DHT22;7542;49.078;9.194;2023-06-22T00:05:25;28.80;56.70
14901;DHT22;7542;49.078;9.194;2023-06-22T00:06:27;28.70;56.70
14901;DHT22;7542;49.078;9.194;2023-06-22T00:07:28;28.70;56.80
14901;DHT22;7542;49.078;9.194;2023-06-22T00:08:30;28.70;56.80
14901;DHT22;7542;49.078;9.194;2023-06-22T00:09:33;28.70;56.80
14901;DHT22;7542;49.078;9.194;2023-06-22T00:10:34;28.60;56.80
14901;DHT22;7542;49.078;9.194;2023-06-22T00:11:37;28.60;56.90
14901;DHT22;7542;49.078;9.194;2023-06-22T00:12:39;28.60;57.00
14901;DHT22;7542;49.078;9.194;2023-06-22T00:13:41;28.60;56.90
14901;DHT22;7542;49.078;9.194;2023-06-22T00:14:43;28.60;57.00
14901;DHT22;7542;49.078;9.194;2023-06-22T00:15:45;28.60;57.00
14901;DHT22;7542;49.078;9.194;2023-06-22T00:16:47;28.60;57.00
14901;DHT22;7542;49.078;9.194;2023-06-22T00:17:50;28.60;57.00
14901;DHT22;7542;49.078;9.194;2023-06-22T00:18:52;28.60;57.00
14901;DHT22;7542;49.078;9.194;2023-06-22T00:19:54;28.50;57.00
14901;DHT22;7542;49.078;9.194;2023-06-22T00:20:56;28.60;57.00
14901;DHT22;7542;49.078;9.194;2023-06-22T00:22:01;28.50;57.10
14901;DHT22;7542;49.078;9.194;2023-06-22T00:23:06;28.50;57.10
14901;DHT22;7542;49.078;9.194;2023-06-22T00:24:11;28.50;57.10
14901;DHT22;7542;49.078;9.194;2023-06-22T00:25:13;28.50;57.10
14901;DHT22;7542;49.078;9.194;2023-06-22T00:26:15;28.40;57.20
14901;DHT22;7542;49.078;9.194;2023-06-22T00:27:17;28.40;57.20
14901;DHT22;7542;49.078;9.194;2023-06-22T00:28:19;28.40;57.30
14901;DHT22;7542;49.078;9.194;2023-06-22T00:29:21;28.40;57.30
14901;DHT22;7542;49.078;9.194;2023-06-22T00:30:26;28.40;57.30
14901;DHT22;7542;49.078;9.194;2023-06-22T00:31:28;28.30;57.30
14901;DHT22;7542;49.078;9.194;2023-06-22T00:32:30;28.30;57.40
14901;DHT22;7542;49.078;9.194;2023-06-22T00:33:32;28.30;57.40
14901;DHT22;7542;49.078;9.194;2023-06-22T00:34:34;28.30;57.50
14901;DHT22;7542;49.078;9.194;2023-06-22T00:35:36;28.30;57.40
14901;DHT22;7542;49.078;9.194;2023-06-22T00:36:38;28.30;57.40
14901;DHT22;7542;49.078;9.194;2023-06-22T00:37:42;28.30;57.50
14901;DHT22;7542;49.078;9.194;2023-06-22T00:38:44;28.30;57.40
14901;DHT22;7542;49.078;9.194;2023-06-22T00:39:46;28.30;57.50
14901;DHT22;7542;49.078;9.194;2023-06-22T00:40:48;28.30;57.60
14901;DHT22;7542;49.078;9.194;2023-06-22T00:41:50;28.30;57.60
14901;DHT22;7542;49.078;9.194;2023-06-22T00:42:52;28.30;57.60
14901;DHT22;7542;49.078;9.194;2023-06-22T00:43:54;28.20;57.60
14901;DHT22;7542;49.078;9.194;2023-06-22T00:44:56;28.10;57.60
14901;DHT22;7542;49.078;9.194;2023-06-22T00:45:58;30.00;58.70
14901;DHT22;7542;49.078;9.194;2023-06-22T00:47:00;28.20;57.60
14901;DHT22;7542;49.078;9.194;2023-06-22T00:48:03;28.20;57.60
14901;DHT22;7542;49.078;9.194;2023-06-22T00:49:06;28.10;57.70
14901;DHT22;7542;49.078;9.194;2023-06-22T00:50:09;28.10;57.80
14901;DHT22;7542;49.078;9.194;2023-06-22T00:51:15;28.10;57.90
14901;DHT22;7542;49.078;9.194;2023-06-22T00:52:17;28.10;57.90
14901;DHT22;7542;49.078;9.194;2023-06-22T00:53:22;28.20;57.90
14901;DHT22;7542;49.078;9.194;2023-06-22T00:54:24;28.10;58.00
14901;DHT22;7542;49.078;9.194;2023-06-22T00:55:27;28.00;58.00
14901;DHT22;7542;49.078;9.194;2023-06-22T00:56:29;28.00;58.10
14901;DHT22;7542;49.078;9.194;2023-06-22T00:57:32;28.00;58.10
14901;DHT22;7542;49.078;9.194;2023-06-22T00:58:35;28.00;58.20
14901;DHT22;7542;49.078;9.194;2023-06-22T00:59:38;28.00;58.20
14901;DHT22;7542;49.078;9.194;2023-06-22T01:00:41;28.00;58.40
14901;DHT22;7542;49.078;9.194;2023-06-22T01:01:44;28.00;58.40
14901;DHT22;7542;49.078;9.194;2023-06-22T01:02:46;27.90;57.90
14901;DHT22;7542;49.078;9.194;2023-06-22T01:03:53;28.00;58.50
14901;DHT22;7542;49.078;9.194;2023-06-22T01:04:59;28.00;58.50
14901;DHT22;7542;49.078;9.194;2023-06-22T01:06:10;28.00;58.50
14901;DHT22;7542;49.078;9.194;2023-06-22T01:07:35;27.90;58.00
14901;DHT22;7542;49.078;9.194;2023-06-22T01:08:53;27.90;58.10
14901;DHT22;7542;49.078;9.194;2023-06-22T01:11:54;27.90;58.20
14901;DHT22;7542;49.078;9.194;2023-06-22T01:13:15;27.80;58.30
14901;DHT22;7542;49.078;9.194;2023-06-22T01:16:26;27.80;58.60
14901;DHT22;7542;49.078;9.194;2023-06-22T01:17:32;27.80;58.70
14901;DHT22;7542;49.078;9.194;2023-06-22T01:18:36;27.80;58.80
14901;DHT22;7542;49.078;9.194;2023-06-22T01:19:50;27.70;58.90
14901;DHT22;7542;49.078;9.194;2023-06-22T01:21:00;27.70;59.00
14901;DHT22;7542;49.078;9.194;2023-06-22T01:22:05;27.60;59.10
14901;DHT22;7542;49.078;9.194;2023-06-22T01:25:16;27.50;59.40
14901;DHT22;7542;49.078;9.194;2023-06-22T01:29:11;27.40;59.80
14901;DHT22;7542;49.078;9.194;2023-06-22T01:30:16;27.30;60.00
14901;DHT22;7542;49.078;9.194;2023-06-22T01:31:23;27.30;60.00
14901;DHT22;7542;49.078;9.194;2023-06-22T01:32:34;27.20;60.10
14901;DHT22;7542;49.078;9.194;2023-06-22T01:33:41;27.20;60.20
14901;DHT22;7542;49.078;9.194;2023-06-22T01:34:45;27.10;60.40
14901;DHT22;7542;49.078;9.194;2023-06-22T01:35:48;27.10;60.40
14901;DHT22;7542;49.078;9.194;2023-06-22T01:36:51;27.10;60.50
14901;DHT22;7542;49.078;9.194;2023-06-22T01:37:55;27.00;60.50
14901;DHT22;7542;49.078;9.194;2023-06-22T01:38:58;27.00;60.70
14901;DHT22;7542;49.078;9.194;2023-06-22T01:40:02;27.00;60.80
14901;DHT22;7542;49.078;9.194;2023-06-22T01:41:06;27.00;60.80
14901;DHT22;7542;49.078;9.194;2023-06-22T01:42:09;26.90;60.30
14901;DHT22;7542;49.078;9.194;2023-06-22T01:43:11;26.90;60.60
14901;DHT22;7542;49.078;9.194;2023-06-22T01:44:13;26.80;60.60
14901;DHT22;7542;49.078;9.194;2023-06-22T01:45:16;26.80;60.80
14901;DHT22;7542;49.078;9.194;2023-06-22T01:46:21;26.80;60.90
14901;DHT22;7542;49.078;9.194;2023-06-22T01:47:24;26.70;61.00
14901;DHT22;7542;49.078;9.194;2023-06-22T01:48:27;26.60;61.00
14901;DHT22;7542;49.078;9.194;2023-06-22T01:49:30;26.70;61.10
14901;DHT22;7542;49.078;9.194;2023-06-22T01:50:32;26.60;61.20
14901;DHT22;7542;49.078;9.194;2023-06-22T01:51:34;26.60;61.40
14901;DHT22;7542;49.078;9.194;2023-06-22T01:52:36;26.60;61.40
14901;DHT22;7542;49.078;9.194;2023-06-22T01:53:39;26.50;61.60
14901;DHT22;7542;49.078;9.194;2023-06-22T01:54:41;26.50;61.60
14901;DHT22;7542;49.078;9.194;2023-06-22T01:55:43;26.40;61.80
14901;DHT22;7542;49.078;9.194;2023-06-22T01:56:45;26.30;61.90
14901;DHT22;7542;49.078;9.194;2023-06-22T01:57:47;26.30;62.00
14901;DHT22;7542;49.078;9.194;2023-06-22T01:58:59;26.30;62.20
14901;DHT22;7542;49.078;9.194;2023-06-22T02:00:18;26.20;62.30
14901;DHT22;7542;49.078;9.194;2023-06-22T02:01:29;26.10;62.50
14901;DHT22;7542;49.078;9.194;2023-06-22T02:03:01;26.10;62.60
14901;DHT22;7542;49.078;9.194;2023-06-22T02:04:19;26.10;62.70
14901;DHT22;7542;49.078;9.194;2023-06-22T02:05:26;26.00;62.90
14901;DHT22;7542;49.078;9.194;2023-06-22T02:06:37;26.10;63.00
14901;DHT22;7542;49.078;9.194;2023-06-22T02:07:47;26.00;63.00
14901;DHT22;7542;49.078;9.194;2023-06-22T02:08:59;26.10;63.00
14901;DHT22;7542;49.078;9.194;2023-06-22T02:10:04;26.00;63.00
14901;DHT22;7542;49.078;9.194;2023-06-22T02:11:09;26.20;63.00
14901;DHT22;7542;49.078;9.194;2023-06-22T02:12:18;26.10;63.00
14901;DHT22;7542;49.078;9.194;2023-06-22T02:13:26;26.10;62.90
14901;DHT22;7542;49.078;9.194;2023-06-22T02:14:29;26.10;62.80
14901;DHT22;7542;49.078;9.194;2023-06-22T02:15:31;26.00;62.90
14901;DHT22;7542;49.078;9.194;2023-06-22T02:16:35;26.10;62.80
14901;DHT22;7542;49.078;9.194;2023-06-22T02:17:37;26.10;62.80
14901;DHT22;7542;49.078;9.194;2023-06-22T02:18:46;26.10;62.70
14901;DHT22;7542;49.078;9.194;2023-06-22T02:19:52;26.00;62.80
14901;DHT22;7542;49.078;9.194;2023-06-22T02:20:54;26.30;62.70
14901;DHT22;7542;49.078;9.194;2023-06-22T02:21:56;26.00;62.90
14901;DHT22;7542;49.078;9.194;2023-06-22T02:22:59;27.50;63.60
14901;DHT22;7542;49.078;9.194;2023-06-22T02:24:02;26.00;63.10
14901;DHT22;7542;49.078;9.194;2023-06-22T02:25:04;25.90;62.60
14901;DHT22;7542;49.078;9.194;2023-06-22T02:26:06;25.90;62.60
14901;DHT22;7542;49.078;9.194;2023-06-22T02:27:09;25.90;62.70
14901;DHT22;7542;49.078;9.194;2023-06-22T02:28:11;25.90;62.80
14901;DHT22;7542;49.078;9.194;2023-06-22T02:29:14;25.80;62.80
14901;DHT22;7542;49.078;9.194;2023-06-22T02:30:16;29.50;65.60
14901;DHT22;7542;49.078;9.194;2023-06-22T02:31:19;25.80;62.90
14901;DHT22;7542;49.078;9.194;2023-06-22T02:32:22;29.50;65.60
14901;DHT22;7542;49.078;9.194;2023-06-22T02:33:25;28.70;64.90
14901;DHT22;7542;49.078;9.194;2023-06-22T02:34:28;25.70;63.00
14901;DHT22;7542;49.078;9.194;2023-06-22T02:35:30;29.20;65.70
14901;DHT22;7542;49.078;9.194;2023-06-22T02:36:33;29.20;65.80
14901;DHT22;7542;49.078;9.194;2023-06-22T02:37:36;29.50;65.90
14901;DHT22;7542;49.078;9.194;2023-06-22T02:38:43;26.80;63.80
14901;DHT22;7542;49.078;9.194;2023-06-22T02:39:50;25.70;63.40
14901;DHT22;7542;49.078;9.194;2023-06-22T02:40:52;25.80;63.50
14901;DHT22;7542;49.078;9.194;2023-06-22T02:41:54;28.10;65.70
14901;DHT22;7542;49.078;9.194;2023-06-22T02:42:57;25.50;63.80
14901;DHT22;7542;49.078;9.194;2023-06-22T02:44:04;25.40;63.90
14901;DHT22;7542;49.078;9.194;2023-06-22T02:45:06;27.50;65.30
14901;DHT22;7542;49.078;9.194;2023-06-22T02:46:09;25.40;64.10
14901;DHT22;7542;49.078;9.194;2023-06-22T02:47:11;26.50;64.70
14901;DHT22;7542;49.078;9.194;2023-06-22T02:48:13;25.50;64.20
14901;DHT22;7542;49.078;9.194;2023-06-22T02:49:15;25.40;64.20
14901;DHT22;7542;49.078;9.194;2023-06-22T02:50:17;25.30;64.30
14901;DHT22;7542;49.078;9.194;2023-06-22T02:51:19;25.30;64.40
14901;DHT22;7542;49.078;9.194;2023-06-22T02:52:21;25.40;64.50
14901;DHT22;7542;49.078;9.194;2023-06-22T02:53:22;25.20;64.50
14901;DHT22;7542;49.078;9.194;2023-06-22T02:54:25;25.40;64.60
14901;DHT22;7542;49.078;9.194;2023-06-22T02:55:27;26.40;65.20
14901;DHT22;7542;49.078;9.194;2023-06-22T02:56:29;25.30;64.70
14901;DHT22;7542;49.078;9.194;2023-06-22T02:57:32;26.80;65.30
14901;DHT22;7542;49.078;9.194;2023-06-22T02:58:34;25.20;64.90
14901;DHT22;7542;49.078;9.194;2023-06-22T02:59:40;25.20;64.90
14901;DHT22;7542;49.078;9.194;2023-06-22T03:00:43;25.20;65.10
14901;DHT22;7542;49.078;9.194;2023-06-22T03:01:45;28.00;67.00
14901;DHT22;7542;49.078;9.194;2023-06-22T03:02:48;25.10;65.20
14901;DHT22;7542;49.078;9.194;2023-06-22T03:03:52;25.10;65.30
14901;DHT22;7542;49.078;9.194;2023-06-22T03:04:54;25.10;65.40
14901;DHT22;7542;49.078;9.194;2023-06-22T03:05:56;25.10;65.50
14901;DHT22;7542;49.078;9.194;2023-06-22T03:06:58;28.50;67.50
14901;DHT22;7542;49.078;9.194;2023-06-22T03:08:02;25.10;65.50
14901;DHT22;7542;49.078;9.194;2023-06-22T03:09:05;25.10;65.50
14901;DHT22;7542;49.078;9.194;2023-06-22T03:10:08;27.50;66.80
14901;DHT22;7542;49.078;9.194;2023-06-22T03:11:11;25.10;65.60
14901;DHT22;7542;49.078;9.194;2023-06-22T03:12:13;25.00;65.60
14901;DHT22;7542;49.078;9.194;2023-06-22T03:13:15;25.10;65.60
14901;DHT22;7542;49.078;9.194;2023-06-22T03:14:18;26.40;66.20
14901;DHT22;7542;49.078;9.194;2023-06-22T03:15:20;25.30;65.60
14901;DHT22;7542;49.078;9.194;2023-06-22T03:16:24;25.10;65.40
14901;DHT22;7542;49.078;9.194;2023-06-22T03:17:26;25.10;65.20
14901;DHT22;7542;49.078;9.194;2023-06-22T03:18:28;25.10;65.20
14901;DHT22;7542;49.078;9.194;2023-06-22T03:19:32;25.50;65.00
14901;DHT22;7542;49.078;9.194;2023-06-22T03:20:35;26.70;65.40
14901;DHT22;7542;49.078;9.194;2023-06-22T03:21:38;25.20;64.70
14901;DHT22;7542;49.078;9.194;2023-06-22T03:22:41;25.40;64.60
14901;DHT22;7542;49.078;9.194;2023-06-22T03:23:46;25.40;64.50
14901;DHT22;7542;49.078;9.194;2023-06-22T03:24:48;25.40;64.30
14901;DHT22;7542;49.078;9.194;2023-06-22T03:25:51;25.50;64.30
14901;DHT22;7542;49.078;9.194;2023-06-22T03:26:53;25.50;64.20
14901;DHT22;7542;49.078;9.194;2023-06-22T03:27:56;25.60;64.10
14901;DHT22;7542;49.078;9.194;2023-06-22T03:28:58;25.60;64.00
14901;DHT22;7542;49.078;9.194;2023-06-22T03:30:00;25.70;63.70
14901;DHT22;7542;49.078;9.194;2023-06-22T03:31:03;25.70;63.50
14901;DHT22;7542;49.078;9.194;2023-06-22T03:32:08;30.00;66.70
14901;DHT22;7542;49.078;9.194;2023-06-22T03:33:10;25.90;63.10
14901;DHT22;7542;49.078;9.194;2023-06-22T03:34:12;26.00;63.50
14901;DHT22;7542;49.078;9.194;2023-06-22T03:35:14;27.90;64.00
14901;DHT22;7542;49.078;9.194;2023-06-22T03:36:17;30.10;65.90
14901;DHT22;7542;49.078;9.194;2023-06-22T03:37:24;26.10;63.00
14901;DHT22;7542;49.078;9.194;2023-06-22T03:38:27;26.10;62.80
14901;DHT22;7542;49.078;9.194;2023-06-22T03:39:29;26.10;62.70
14901;DHT22;7542;49.078;9.194;2023-06-22T03:40:31;26.10;62.70
14901;DHT22;7542;49.078;9.194;2023-06-22T03:41:33;26.20;62.60
14901;DHT22;7542;49.078;9.194;2023-06-22T03:42:36;26.10;62.50
14901;DHT22;7542;49.078;9.194;2023-06-22T03:43:38;26.20;62.50
14901;DHT22;7542;49.078;9.194;2023-06-22T03:44:40;26.20;62.50
14901;DHT22;7542;49.078;9.194;2023-06-22T03:45:42;26.20;62.50
14901;DHT22;7542;49.078;9.194;2023-06-22T03:46:46;26.20;62.40
14901;DHT22;7542;49.078;9.194;2023-06-22T03:47:49;26.20;62.30
14901;DHT22;7542;49.078;9.194;2023-06-22T03:48:51;26.30;62.30
14901;DHT22;7542;49.078;9.194;2023-06-22T03:49:53;27.10;63.00
14901;DHT22;7542;49.078;9.194;2023-06-22T03:50:57;26.30;62.20
14901;DHT22;7542;49.078;9.194;2023-06-22T03:52:02;29.20;64.30
14901;DHT22;7542;49.078;9.194;2023-06-22T03:53:04;26.30;62.10
14901;DHT22;7542;49.078;9.194;2023-06-22T03:54:06;26.30;62.10
14901;DHT22;7542;49.078;9.194;2023-06-22T03:55:09;26.30;62.00
14901;DHT22;7542;49.078;9.194;2023-06-22T03:56:11;26.30;62.00
14901;DHT22;7542;49.078;9.194;2023-06-22T03:57:13;26.40;62.00
14901;DHT22;7542;49.078;9.194;2023-06-22T03:58:16;27.70;62.70
14901;DHT22;7542;49.078;9.194;2023-06-22T03:59:20;26.30;62.00
14901;DHT22;7542;49.078;9.194;2023-06-22T04:00:24;28.10;63.30
14901;DHT22;7542;49.078;9.194;2023-06-22T04:01:26;26.40;61.90
14901;DHT22;7542;49.078;9.194;2023-06-22T04:02:28;26.40;61.80
14901;DHT22;7542;49.078;9.194;2023-06-22T04:03:30;26.40;61.80
14901;DHT22;7542;49.078;9.194;2023-06-22T04:04:32;27.50;62.50
14901;DHT22;7542;49.078;9.194;2023-06-22T04:05:39;26.40;61.80
14901;DHT22;7542;49.078;9.194;2023-06-22T04:06:41;26.40;61.80
14901;DHT22;7542;49.078;9.194;2023-06-22T04:07:43;29.50;64.00
14901;DHT22;7542;49.078;9.194;2023-06-22T04:08:46;26.40;61.80
14901;DHT22;7542;49.078;9.194;2023-06-22T04:09:53;30.40;64.70
14901;DHT22;7542;49.078;9.194;2023-06-22T04:10:55;26.40;61.80
14901;DHT22;7542;49.078;9.194;2023-06-22T04:11:57;26.40;61.80
14901;DHT22;7542;49.078;9.194;2023-06-22T04:13:00;26.40;61.80
14901;DHT22;7542;49.078;9.194;2023-06-22T04:14:02;24.30;60.90
14901;DHT22;7542;49.078;9.194;2023-06-22T04:15:05;27.10;62.50
14901;DHT22;7542;49.078;9.194;2023-06-22T04:16:07;26.40;61.80
14901;DHT22;7542;49.078;9.194;2023-06-22T04:17:09;26.50;61.80
14901;DHT22;7542;49.078;9.194;2023-06-22T04:18:11;26.50;61.70
14901;DHT22;7542;49.078;9.194;2023-06-22T04:19:15;26.50;61.70
14901;DHT22;7542;49.078;9.194;2023-06-22T04:20:19;26.40;61.80
14901;DHT22;7542;49.078;9.194;2023-06-22T04:21:21;27.00;62.50
14901;DHT22;7542;49.078;9.194;2023-06-22T04:22:25;26.40;61.80
14901;DHT22;7542;49.078;9.194;2023-06-22T04:23:27;26.50;61.60
14901;DHT22;7542;49.078;9.194;2023-06-22T04:24:29;26.50;61.60
14901;DHT22;7542;49.078;9.194;2023-06-22T04:25:31;26.50;61.60
14901;DHT22;7542;49.078;9.194;2023-06-22T04:26:33;26.80;61.60
14901;DHT22;7542;49.078;9.194;2023-06-22T04:27:38;29.00;63.80
14901;DHT22;7542;49.078;9.194;2023-06-22T04:28:41;26.50;61.70
14901;DHT22;7542;49.078;9.194;2023-06-22T04:29:44;26.50;61.60
14901;DHT22;7542;49.078;9.194;2023-06-22T04:30:50;29.50;63.80
14901;DHT22;7542;49.078;9.194;2023-06-22T04:31:52;26.50;61.60
14901;DHT22;7542;49.078;9.194;2023-06-22T04:32:54;26.60;61.60
14901;DHT22;7542;49.078;9.194;2023-06-22T04:34:00;26.50;61.60
14901;DHT22;7542;49.078;9.194;2023-06-22T04:35:08;26.60;61.60
14901;DHT22;7542;49.078;9.194;2023-06-22T04:36:10;26.60;61.60
14901;DHT22;7542;49.078;9.194;2023-06-22T04:37:15;26.60;61.60
14901;DHT22;7542;49.078;9.194;2023-06-22T04:38:17;26.60;61.60
14901;DHT22;7542;49.078;9.194;2023-06-22T04:39:19;28.60;63.10
14901;DHT22;7542;49.078;9.194;2023-06-22T04:40:24;26.60;61.60
14901;DHT22;7542;49.078;9.194;2023-06-22T04:41:27;26.60;61.70
14901;DHT22;7542;49.078;9.194;2023-06-22T04:42:29;26.60;61.60
14901;DHT22;7542;49.078;9.194;2023-06-22T04:43:34;26.60;61.70
14901;DHT22;7542;49.078;9.194;2023-06-22T04:44:36;26.60;61.60
14901;DHT22;7542;49.078;9.194;2023-06-22T04:45:38;26.60;61.60
14901;DHT22;7542;49.078;9.194;2023-06-22T04:46:40;27.20;62.40
14901;DHT22;7542;49.078;9.194;2023-06-22T04:47:42;26.60;61.60
14901;DHT22;7542;49.078;9.194;2023-06-22T04:48:44;26.60;61.70
14901;DHT22;7542;49.078;9.194;2023-06-22T04:49:46;28.60;63.10
14901;DHT22;7542;49.078;9.194;2023-06-22T04:50:48;26.60;61.60
14901;DHT22;7542;49.078;9.194;2023-06-22T04:51:50;26.60;61.70
14901;DHT22;7542;49.078;9.194;2023-06-22T04:52:53;25.20;61.10
14901;DHT22;7542;49.078;9.194;2023-06-22T04:53:55;27.90;62.30
14901;DHT22;7542;49.078;9.194;2023-06-22T04:55:02;26.60;61.60
14901;DHT22;7542;49.078;9.194;2023-06-22T04:56:05;26.60;61.60
14901;DHT22;7542;49.078;9.194;2023-06-22T04:57:07;26.60;61.60
14901;DHT22;7542;49.078;9.194;2023-06-22T04:58:12;28.00;63.00
14901;DHT22;7542;49.078;9.194;2023-06-22T04:59:15;26.70;61.60
14901;DHT22;7542;49.078;9.194;2023-06-22T05:00:17;26.70;61.50
14901;DHT22;7542;49.078;9.194;2023-06-22T05:01:24;26.70;61.50
14901;DHT22;7542;49.078;9.194;2023-06-22T05:02:26;26.70;61.40
14901;DHT22;7542;49.078;9.194;2023-06-22T05:03:34;26.70;61.40
14901;DHT22;7542;49.078;9.194;2023-06-22T05:04:38;26.60;61.30
14901;DHT22;7542;49.078;9.194;2023-06-22T05:05:41;26.70;61.30
14901;DHT22;7542;49.078;9.194;2023-06-22T05:06:43;28.10;62.70
14901;DHT22;7542;49.078;9.194;2023-06-22T05:07:47;26.70;61.30
14901;DHT22;7542;49.078;9.194;2023-06-22T05:08:53;26.80;61.30
14901;DHT22;7542;49.078;9.194;2023-06-22T05:10:03;26.70;61.30
14901;DHT22;7542;49.078;9.194;2023-06-22T05:11:05;26.80;61.30
14901;DHT22;7542;49.078;9.194;2023-06-22T05:12:08;26.80;61.20
14901;DHT22;7542;49.078;9.194;2023-06-22T05:13:11;26.80;61.20
14901;DHT22;7542;49.078;9.194;2023-06-22T05:14:14;26.80;61.10
14901;DHT22;7542;49.078;9.194;2023-06-22T05:15:16;26.80;61.10
14901;DHT22;7542;49.078;9.194;2023-06-22T05:16:22;26.80;61.10
14901;DHT22;7542;49.078;9.194;2023-06-22T05:17:27;26.90;61.10
14901;DHT22;7542;49.078;9.194;2023-06-22T05:18:30;26.80;61.00
14901;DHT22;7542;49.078;9.194;2023-06-22T05:19:33;26.80;61.00
14901;DHT22;7542;49.078;9.194;2023-06-22T05:20:36;26.80;61.10
14901;DHT22;7542;49.078;9.194;2023-06-22T05:21:38;26.80;61.20
14901;DHT22;7542;49.078;9.194;2023-06-22T05:22:40;26.80;61.30
14901;DHT22;7542;49.078;9.194;2023-06-22T05:23:42;29.60;63.40
14901;DHT22;7542;49.078;9.194;2023-06-22T05:24:45;26.80;61.20
14901;DHT22;7542;49.078;9.194;2023-06-22T05:25:48;26.80;61.20
14901;DHT22;7542;49.078;9.194;2023-06-22T05:26:50;26.80;61.20
14901;DHT22;7542;49.078;9.194;2023-06-22T05:27:53;26.80;61.10
14901;DHT22;7542;49.078;9.194;2023-06-22T05:28:55;26.90;61.00
14901;DHT22;7542;49.078;9.194;2023-06-22T05:29:57;26.80;60.90
14901;DHT22;7542;49.078;9.194;2023-06-22T05:31:00;26.90;60.90
14901;DHT22;7542;49.078;9.194;2023-06-22T05:32:02;26.90;60.80
14901;DHT22;7542;49.078;9.194;2023-06-22T05:33:06;26.90;60.80
14901;DHT22;7542;49.078;9.194;2023-06-22T05:34:08;27.00;61.50
14901;DHT22;7542;49.078;9.194;2023-06-22T05:35:11;29.90;63.00
14901;DHT22;7542;49.078;9.194;2023-06-22T05:36:13;27.00;61.50
14901;DHT22;7542;49.078;9.194;2023-06-22T05:37:15;27.00;61.50
14901;DHT22;7542;49.078;9.194;2023-06-22T05:38:17;27.20;61.60
14901;DHT22;7542;49.078;9.194;2023-06-22T05:39:19;30.80;63.60
14901;DHT22;7542;49.078;9.194;2023-06-22T05:40:21;27.00;61.40
14901;DHT22;7542;49.078;9.194;2023-06-22T05:41:24;27.00;61.40
14901;DHT22;7542;49.078;9.194;2023-06-22T05:42:26;27.00;61.40
14901;DHT22;7542;49.078;9.194;2023-06-22T05:43:28;28.50;62.00
14901;DHT22;7542;49.078;9.194;2023-06-22T05:44:30;27.80;61.30
14901;DHT22;7542;49.078;9.194;2023-06-22T05:45:32;27.10;60.80
14901;DHT22;7542;49.078;9.194;2023-06-22T05:46:34;28.30;61.20
14901;DHT22;7542;49.078;9.194;2023-06-22T05:47:36;28.90;61.40
14901;DHT22;7542;49.078;9.194;2023-06-22T05:48:38;23.40;59.10
14901;DHT22;7542;49.078;9.194;2023-06-22T05:49:40;27.20;61.40
14901;DHT22;7542;49.078;9.194;2023-06-22T05:50:42;27.20;61.40
14901;DHT22;7542;49.078;9.194;2023-06-22T05:51:45;27.10;61.50
14901;DHT22;7542;49.078;9.194;2023-06-22T05:52:47;27.20;61.60
14901;DHT22;7542;49.078;9.194;2023-06-22T05:53:49;27.20;61.50
14901;DHT22;7542;49.078;9.194;2023-06-22T05:54:51;27.20;61.60
14901;DHT22;7542;49.078;9.194;2023-06-22T05:55:53;27.20;61.60
14901;DHT22;7542;49.078;9.194;2023-06-22T05:56:55;27.20;61.60
14901;DHT22;7542;49.078;9.194;2023-06-22T05:57:57;27.20;61.50
14901;DHT22;7542;49.078;9.194;2023-06-22T05:58:59;27.20;61.50
14901;DHT22;7542;49.078;9.194;2023-06-22T06:00:02;27.20;61.40
14901;DHT22;7542;49.078;9.194;2023-06-22T06:01:09;27.30;61.50
14901;DHT22;7542;49.078;9.194;2023-06-22T06:02:11;27.30;61.40
14901;DHT22;7542;49.078;9.194;2023-06-22T06:03:13;27.20;61.40
14901;DHT22;7542;49.078;9.194;2023-06-22T06:04:19;27.20;61.50
14901;DHT22;7542;49.078;9.194;2023-06-22T06:05:21;27.80;61.50
14901;DHT22;7542;49.078;9.194;2023-06-22T06:06:24;27.30;61.40
14901;DHT22;7542;49.078;9.194;2023-06-22T06:07:30;27.30;61.40
14901;DHT22;7542;49.078;9.194;2023-06-22T06:08:32;27.30;61.40
14901;DHT22;7542;49.078;9.194;2023-06-22T06:09:34;27.30;61.50
14901;DHT22;7542;49.078;9.194;2023-06-22T06:10:36;29.20;63.00
14901;DHT22;7542;49.078;9.194;2023-06-22T06:11:38;27.30;61.50
14901;DHT22;7542;49.078;9.194;2023-06-22T06:12:41;27.30;61.40
14901;DHT22;7542;49.078;9.194;2023-06-22T06:13:43;27.30;61.50
14901;DHT22;7542;49.078;9.194;2023-06-22T06:14:45;27.40;61.40
14901;DHT22;7542;49.078;9.194;2023-06-22T06:15:48;31.10;64.10
14901;DHT22;7542;49.078;9.194;2023-06-22T06:16:52;27.30;61.40
14901;DHT22;7542;49.078;9.194;2023-06-22T06:17:55;27.40;61.40
14901;DHT22;7542;49.078;9.194;2023-06-22T06:18:57;27.40;61.50
14901;DHT22;7542;49.078;9.194;2023-06-22T06:20:01;29.60;62.90
14901;DHT22;7542;49.078;9.194;2023-06-22T06:21:06;27.40;61.40
14901;DHT22;7542;49.078;9.194;2023-06-22T06:22:08;27.40;61.40
14901;DHT22;7542;49.078;9.194;2023-06-22T06:23:10;27.30;61.30
14901;DHT22;7542;49.078;9.194;2023-06-22T06:24:12;27.40;61.40
14901;DHT22;7542;49.078;9.194;2023-06-22T06:25:15;27.40;60.90
14901;DHT22;7542;49.078;9.194;2023-06-22T06:26:18;27.40;61.40
14901;DHT22;7542;49.078;9.194;2023-06-22T06:27:25;29.60;61.80
14901;DHT22;7542;49.078;9.194;2023-06-22T06:28:30;27.50;60.70
14901;DHT22;7542;49.078;9.194;2023-06-22T06:29:33;27.50;60.50
14901;DHT22;7542;49.078;9.194;2023-06-22T06:30:35;29.20;61.50
14901;DHT22;7542;49.078;9.194;2023-06-22T06:31:38;27.50;60.50
14901;DHT22;7542;49.078;9.194;2023-06-22T06:32:41;27.50;60.50
14901;DHT22;7542;49.078;9.194;2023-06-22T06:33:44;27.50;60.20
14901;DHT22;7542;49.078;9.194;2023-06-22T06:34:46;27.50;60.50
14901;DHT22;7542;49.078;9.194;2023-06-22T06:35:48;27.50;60.20
14901;DHT22;7542;49.078;9.194;2023-06-22T06:36:50;27.50;60.60
14901;DHT22;7542;49.078;9.194;2023-06-22T06:37:52;27.50;60.70
14901;DHT22;7542;49.078;9.194;2023-06-22T06:38:54;27.50;60.70
14901;DHT22;7542;49.078;9.194;2023-06-22T06:39:56;27.60;60.50
14901;DHT22;7542;49.078;9.194;2023-06-22T06:40:58;27.60;60.90
14901;DHT22;7542;49.078;9.194;2023-06-22T06:42:01;27.60;61.40
14901;DHT22;7542;49.078;9.194;2023-06-22T06:43:03;27.60;60.60
14901;DHT22;7542;49.078;9.194;2023-06-22T06:44:05;29.50;61.40
14901;DHT22;7542;49.078;9.194;2023-06-22T06:45:08;27.60;60.50
14901;DHT22;7542;49.078;9.194;2023-06-22T06:46:11;27.60;60.20
14901;DHT22;7542;49.078;9.194;2023-06-22T06:47:13;27.60;60.20
14901;DHT22;7542;49.078;9.194;2023-06-22T06:48:15;27.60;60.00
14901;DHT22;7542;49.078;9.194;2023-06-22T06:49:17;27.60;60.00
14901;DHT22;7542;49.078;9.194;2023-06-22T06:50:20;27.70;59.80
14901;DHT22;7542;49.078;9.194;2023-06-22T06:51:22;27.70;59.80
14901;DHT22;7542;49.078;9.194;2023-06-22T06:52:24;27.70;59.80
14901;DHT22;7542;49.078;9.194;2023-06-22T06:53:26;27.70;60.00
14901;DHT22;7542;49.078;9.194;2023-06-22T06:54:29;27.70;60.10
14901;DHT22;7542;49.078;9.194;2023-06-22T06:55:32;29.40;61.40